Time;durP1;ratioP1;P1;durP2;ratioP2;P2;SDS_P1;SDS_P2;PMS_P1;PMS_P2;Temp;Humidity;BMP_temperature;BMP_pressure;BME280_temperature;BME280_humidity;BME280_pressure;Samples;Min_cycle;Max_cycle;Signal;HPM_P1;HPM_P2
2021/12/22 00:00:10;;;;;;;29.63;17.65;;;;;;;16.16;43.72;102746.91;5007788;28;20050;-56
2021/12/22 00:02:40;;;;;;;30.95;17.17;;;;;;;16.15;43.64;102745.19;5007711;28;20124;-54
2021/12/22 00:05:07;;;;;;;27.75;16.15;;;;;;;16.14;44.27;102754.16;5004149;28;20050;-56
2021/12/22 00:07:34;;;;;;;30.63;17.40;;;;;;;16.13;43.71;102746.25;5006896;28;20062;-54
2021/12/22 00:10:00;;;;;;;27.70;15.73;;;;;;;16.11;44.07;102742.78;5007977;28;21286;-56
2021/12/22 00:12:27;;;;;;;28.27;17.08;;;;;;;16.10;44.33;102759.81;5005826;28;20125;-55
2021/12/22 00:14:53;;;;;;;24.85;15.18;;;;;;;16.09;44.59;102756.28;5010408;28;20046;-55
2021/12/22 00:17:20;;;;;;;26.92;15.80;;;;;;;16.07;44.00;102760.84;5008902;28;20049;-56
2021/12/22 00:19:46;;;;;;;26.33;16.08;;;;;;;16.06;44.78;102751.09;5005801;28;20057;-57
2021/12/22 00:22:13;;;;;;;30.27;14.75;;;;;;;16.04;44.60;102745.00;5008156;28;20056;-56
2021/12/22 00:24:40;;;;;;;25.50;15.00;;;;;;;16.03;44.72;102751.28;5008692;28;20057;-57
2021/12/22 00:27:07;;;;;;;22.70;14.18;;;;;;;16.01;44.32;102746.03;5005779;28;20722;-56
2021/12/22 00:29:34;;;;;;;23.92;14.30;;;;;;;16.00;44.32;102747.00;5010078;28;20124;-55
2021/12/22 00:32:11;;;;;;;23.70;13.80;;;;;;;15.99;43.64;102742.56;5006613;28;20129;-56
2021/12/22 00:34:51;;;;;;;24.15;14.98;;;;;;;15.98;44.27;102740.00;5006025;28;20074;-56
2021/12/22 00:37:24;;;;;;;22.58;13.95;;;;;;;15.95;43.80;102733.03;5006509;28;20353;-57
2021/12/22 00:39:51;;;;;;;19.80;12.80;;;;;;;15.95;44.11;102734.84;5006925;28;20071;-55
2021/12/22 00:42:19;;;;;;;21.67;12.93;;;;;;;15.94;44.63;102733.13;5007875;28;20042;-55
2021/12/22 00:44:49;;;;;;;22.35;13.75;;;;;;;15.93;43.69;102734.09;5007445;28;20046;-56
2021/12/22 00:47:17;;;;;;;22.23;13.80;;;;;;;15.91;44.06;102727.97;5005887;28;20050;-56
2021/12/22 00:49:45;;;;;;;21.48;13.40;;;;;;;15.89;44.14;102729.88;5005479;28;20054;-56
2021/12/22 00:52:12;;;;;;;19.95;11.55;;;;;;;15.88;44.86;102742.41;5005943;28;20048;-55
2021/12/22 00:54:39;;;;;;;21.08;12.43;;;;;;;15.87;44.29;102735.31;5007936;28;20052;-55
2021/12/22 00:57:06;;;;;;;21.92;13.00;;;;;;;15.86;43.76;102730.91;5007152;28;20048;-55
2021/12/22 00:59:34;;;;;;;20.17;12.18;;;;;;;15.85;44.47;102729.22;5007230;28;20050;-55
2021/12/22 01:02:03;;;;;;;20.40;11.80;;;;;;;15.84;43.85;102734.63;5007692;28;20141;-54
2021/12/22 01:04:30;;;;;;;19.75;11.25;;;;;;;15.83;44.11;102732.91;5006072;28;20081;-56
2021/12/22 01:06:57;;;;;;;21.05;12.75;;;;;;;15.82;43.70;102737.41;5007799;28;20089;-55
2021/12/22 01:09:23;;;;;;;19.27;11.57;;;;;;;15.81;43.97;102738.38;5004820;28;20049;-56
2021/12/22 01:11:50;;;;;;;17.67;11.68;;;;;;;15.78;44.73;102731.38;5006582;28;20156;-55
2021/12/22 01:14:17;;;;;;;18.55;10.93;;;;;;;15.79;44.08;102735.78;5009923;28;20065;-56
2021/12/22 01:16:49;;;;;;;17.98;11.30;;;;;;;15.77;44.60;102737.69;5005852;28;20045;-55
2021/12/22 01:19:23;;;;;;;17.63;10.48;;;;;;;15.76;44.19;102738.66;5003303;28;20053;-53
2021/12/22 01:21:58;;;;;;;18.20;11.13;;;;;;;15.76;43.90;102740.47;5009551;28;20050;-54
2021/12/22 01:24:31;;;;;;;16.67;10.80;;;;;;;15.74;43.94;102740.53;5005823;28;20469;-55
2021/12/22 01:27:08;;;;;;;19.25;11.18;;;;;;;15.73;43.92;102749.53;5005401;28;20045;-56
2021/12/22 01:29:37;;;;;;;16.98;10.68;;;;;;;15.74;44.51;102745.03;5008567;28;20053;-56
2021/12/22 01:32:05;;;;;;;15.43;10.05;;;;;;;15.72;44.92;102741.59;5008863;28;20052;-55
2021/12/22 01:34:32;;;;;;;16.23;10.30;;;;;;;15.70;43.96;102747.03;5004454;28;20425;-56
2021/12/22 01:36:59;;;;;;;19.02;11.10;;;;;;;15.69;44.76;102739.09;5006459;28;20256;-56
2021/12/22 01:39:26;;;;;;;17.70;10.40;;;;;;;15.68;43.99;102740.94;5004541;28;21650;-56
2021/12/22 01:41:53;;;;;;;20.17;11.02;;;;;;;15.68;44.61;102737.41;5004916;28;20049;-54
2021/12/22 01:45:02;;;;;;;15.85;10.10;;;;;;;15.66;44.79;102732.13;5007081;28;20050;-54
2021/12/22 01:50:28;;;;;;;17.20;10.38;;;;;;;15.63;44.85;102740.28;5006626;28;20062;-55
2021/12/22 01:52:54;;;;;;;17.50;9.40;;;;;;;15.62;43.74;102737.72;5014062;28;20054;-56
2021/12/22 01:55:35;;;;;;;16.75;9.73;;;;;;;15.60;44.40;102740.50;5010705;28;20714;-54
2021/12/22 01:58:06;;;;;;;17.95;9.98;;;;;;;15.60;44.31;102732.47;5006932;28;20129;-55
2021/12/22 02:00:33;;;;;;;15.45;8.95;;;;;;;15.58;44.66;102731.69;5012794;28;20128;-56
2021/12/22 02:03:00;;;;;;;13.70;9.18;;;;;;;15.59;44.11;102733.41;5013808;28;20045;-55
2021/12/22 02:05:26;;;;;;;13.15;8.95;;;;;;;15.57;44.75;102721.97;5011345;28;20060;-56
2021/12/22 02:07:57;;;;;;;13.95;9.25;;;;;;;15.58;44.56;102731.69;5013150;28;20054;-54
2021/12/22 02:10:36;;;;;;;12.32;8.20;;;;;;;15.62;44.76;102722.53;5014059;28;20056;-54
2021/12/22 02:13:08;;;;;;;14.38;8.65;;;;;;;15.70;44.94;102725.63;5009817;28;20189;-56
2021/12/22 02:15:35;;;;;;;16.35;9.77;;;;;;;15.77;44.31;102721.66;5012435;28;20050;-55
2021/12/22 02:18:04;;;;;;;13.80;8.88;;;;;;;15.85;44.04;102718.50;5010298;28;20042;-57
2021/12/22 02:20:31;;;;;;;13.00;8.50;;;;;;;15.95;43.46;102711.63;5010817;28;20058;-57
2021/12/22 02:22:58;;;;;;;14.10;8.68;;;;;;;16.05;43.51;102717.28;5009247;28;20470;-57
2021/12/22 02:25:34;;;;;;;14.02;9.05;;;;;;;16.13;43.36;102722.16;5012115;28;20050;-57
2021/12/22 02:28:03;;;;;;;12.52;8.77;;;;;;;16.21;43.80;102720.72;5013763;28;20048;-57
2021/12/22 02:30:32;;;;;;;12.77;7.80;;;;;;;16.29;43.51;102728.28;5009103;28;20050;-56
2021/12/22 02:33:22;;;;;;;12.73;7.90;;;;;;;16.38;43.91;102725.03;5009818;28;20125;-57
2021/12/22 02:35:54;;;;;;;14.45;8.18;;;;;;;16.47;43.01;102726.25;5006611;28;20060;-58
2021/12/22 02:38:21;;;;;;;12.25;7.95;;;;;;;16.54;43.41;102724.91;5010079;28;20050;-58
2021/12/22 02:40:51;;;;;;;13.77;8.30;;;;;;;16.60;42.97;102726.31;5011263;28;20152;-58
2021/12/22 02:43:21;;;;;;;14.10;7.90;;;;;;;16.65;43.73;102724.22;5009676;28;20057;-56
2021/12/22 02:45:50;;;;;;;11.40;7.18;;;;;;;16.68;42.95;102729.38;5010994;28;20085;-57
2021/12/22 02:48:17;;;;;;;10.77;6.85;;;;;;;16.70;42.84;102732.81;5010449;28;20080;-57
2021/12/22 02:50:44;;;;;;;14.02;8.00;;;;;;;16.71;43.17;102731.84;5008247;28;20081;-57
2021/12/22 02:53:14;;;;;;;12.73;7.68;;;;;;;16.70;43.11;102733.66;5007383;28;20137;-58
2021/12/22 02:55:51;;;;;;;11.32;7.40;;;;;;;16.70;42.55;102731.00;5010773;28;20046;-56
2021/12/22 03:06:57;;;;;;;11.95;7.70;;;;;;;16.62;42.93;102749.38;5011326;28;20429;-57
2021/12/22 03:09:30;;;;;;;10.63;6.55;;;;;;;16.58;43.19;102747.84;5008745;28;20057;-56
2021/12/22 03:12:00;;;;;;;11.20;6.85;;;;;;;16.54;43.32;102739.16;5009124;28;20061;-54
2021/12/22 03:14:28;;;;;;;8.48;5.65;;;;;;;16.53;43.20;102736.56;5006339;28;20060;-57
2021/12/22 03:16:56;;;;;;;11.75;6.55;;;;;;;16.50;43.08;102739.44;5012434;28;20048;-57
2021/12/22 03:19:29;;;;;;;10.77;6.50;;;;;;;16.47;43.15;102742.31;5007419;28;20060;-56
2021/12/22 03:22:02;;;;;;;9.30;6.53;;;;;;;16.45;43.09;102746.91;5008406;28;20056;-57
2021/12/22 03:24:31;;;;;;;14.02;6.65;;;;;;;16.40;42.86;102736.50;5008681;28;20052;-57
2021/12/22 03:27:03;;;;;;;10.18;6.97;;;;;;;16.37;42.85;102730.47;5010153;28;20125;-57
2021/12/22 03:29:33;;;;;;;10.07;5.60;;;;;;;16.34;43.40;102733.34;5010487;28;20172;-57
2021/12/22 03:31:59;;;;;;;8.88;5.95;;;;;;;16.29;42.96;102731.81;5005797;28;20129;-57
2021/12/22 03:34:26;;;;;;;9.32;6.35;;;;;;;16.26;42.82;102723.97;5008000;28;20137;-57
2021/12/22 03:36:53;;;;;;;9.75;6.13;;;;;;;16.23;43.14;102729.50;5007733;28;20042;-56
2021/12/22 03:39:20;;;;;;;9.95;6.30;;;;;;;16.19;42.80;102722.63;5008188;28;20181;-57
2021/12/22 03:41:48;;;;;;;9.30;6.32;;;;;;;16.16;42.89;102716.59;5007621;28;20442;-56
2021/12/22 03:44:15;;;;;;;10.50;6.50;;;;;;;16.13;42.95;102712.31;5008417;28;20129;-56
2021/12/22 03:46:42;;;;;;;9.68;6.00;;;;;;;16.11;43.59;102713.38;5006675;28;20252;-55
2021/12/22 03:49:11;;;;;;;8.73;5.85;;;;;;;16.08;43.35;102717.09;5009247;28;20053;-55
2021/12/22 03:51:38;;;;;;;10.57;6.20;;;;;;;16.06;43.04;102705.63;5009888;28;20056;-55
2021/12/22 03:54:06;;;;;;;9.18;5.80;;;;;;;16.07;43.64;102710.00;5005616;28;20361;-56
2021/12/22 03:56:33;;;;;;;9.38;6.05;;;;;;;16.11;43.58;102710.69;5008039;28;20648;-54
2021/12/22 03:59:00;;;;;;;9.35;5.60;;;;;;;16.16;43.79;102720.16;5025205;28;20121;-53
2021/12/22 04:01:27;;;;;;;9.15;5.65;;;;;;;16.22;43.05;102711.75;5006021;28;20050;-55
2021/12/22 04:03:58;;;;;;;9.02;5.78;;;;;;;16.29;43.86;102701.53;5008707;28;20042;-57
2021/12/22 04:06:25;;;;;;;9.18;5.57;;;;;;;16.38;43.09;102703.59;5007766;28;20077;-56
2021/12/22 04:08:52;;;;;;;8.45;5.45;;;;;;;16.46;42.76;102709.34;5006459;28;20057;-56
2021/12/22 04:11:18;;;;;;;9.98;5.55;;;;;;;16.54;42.60;102699.00;5006976;28;20452;-57
2021/12/22 04:13:45;;;;;;;8.77;5.75;;;;;;;16.63;43.05;102704.72;5009570;28;20457;-56
2021/12/22 04:16:11;;;;;;;8.98;5.05;;;;;;;16.70;43.42;102706.03;5006737;28;20341;-57
2021/12/22 04:18:38;;;;;;;9.43;5.50;;;;;;;16.76;42.49;102701.19;5006732;28;20129;-57
2021/12/22 04:21:04;;;;;;;8.27;5.45;;;;;;;16.83;42.71;102690.06;5004061;28;20058;-58
2021/12/22 04:23:31;;;;;;;8.25;4.97;;;;;;;16.88;42.94;102688.78;5007086;28;20125;-57
2021/12/22 04:25:57;;;;;;;8.30;5.20;;;;;;;16.95;42.61;102689.25;5007722;28;20426;-57
2021/12/22 04:28:24;;;;;;;8.45;5.05;;;;;;;16.99;42.78;102685.41;5004262;28;20080;-58
2021/12/22 04:30:51;;;;;;;8.80;5.10;;;;;;;17.05;42.26;102686.84;5009982;28;20052;-58
2021/12/22 04:33:21;;;;;;;9.00;5.25;;;;;;;17.10;42.36;102682.03;5007750;28;20398;-58
2021/12/22 04:35:50;;;;;;;8.15;5.28;;;;;;;17.13;42.63;102690.72;5008659;28;20050;-58
2021/12/22 04:38:18;;;;;;;8.25;5.35;;;;;;;17.17;41.62;102686.88;5006126;28;20060;-58
2021/12/22 04:40:44;;;;;;;10.10;5.78;;;;;;;17.21;41.60;102680.34;5009003;28;20490;-58
2021/12/22 04:43:11;;;;;;;8.60;5.78;;;;;;;17.24;41.42;102672.06;5007332;28;20430;-57
2021/12/22 04:45:37;;;;;;;11.63;6.20;;;;;;;17.27;42.11;102669.19;5006520;28;20405;-58
2021/12/22 04:48:04;;;;;;;9.88;6.18;;;;;;;17.33;41.58;102672.44;5008033;28;20048;-58
2021/12/22 04:50:32;;;;;;;9.68;5.68;;;;;;;17.35;42.10;102674.03;5005248;28;20054;-58
2021/12/22 04:53:09;;;;;;;10.75;6.53;;;;;;;17.38;41.72;102664.94;5006961;28;20161;-57
2021/12/22 04:55:36;;;;;;;10.43;6.60;;;;;;;17.41;41.78;102670.09;5005588;28;20517;-58
2021/12/22 04:58:03;;;;;;;13.07;6.82;;;;;;;17.42;41.42;102667.31;5004207;28;20069;-58
2021/12/22 05:00:32;;;;;;;10.60;6.68;;;;;;;17.43;41.38;102663.66;5010121;28;20524;-58
2021/12/22 05:02:58;;;;;;;12.93;7.55;;;;;;;17.46;41.70;102667.97;5004554;28;20064;-59
2021/12/22 05:05:26;;;;;;;14.00;7.30;;;;;;;17.47;41.57;102661.63;5006666;28;20054;-58
2021/12/22 05:07:53;;;;;;;13.65;7.72;;;;;;;17.46;41.50;102655.41;5005220;28;20045;-58
2021/12/22 05:10:20;;;;;;;13.23;7.30;;;;;;;17.46;41.25;102651.88;5003695;28;20132;-59
2021/12/22 05:12:47;;;;;;;12.75;7.25;;;;;;;17.44;40.84;102654.63;5003778;28;20168;-58
2021/12/22 05:15:17;;;;;;;13.38;7.75;;;;;;;17.41;41.00;102654.03;5007549;28;20057;-58
2021/12/22 05:20:13;;;;;;;13.85;7.78;;;;;;;17.33;41.45;102646.50;5002481;28;20058;-58
2021/12/22 05:22:40;;;;;;;15.25;7.85;;;;;;;17.27;41.47;102655.78;5002780;28;20045;-57
2021/12/22 05:25:09;;;;;;;13.82;7.80;;;;;;;17.24;40.76;102653.31;5005991;28;20140;-58
2021/12/22 05:27:36;;;;;;;13.00;7.65;;;;;;;17.20;41.12;102659.00;5003631;28;20056;-58
2021/12/22 05:30:05;;;;;;;18.80;9.32;;;;;;;17.15;41.46;102656.63;5003571;28;20129;-58
2021/12/22 05:32:32;;;;;;;14.48;8.15;;;;;;;17.10;41.10;102650.72;5007811;28;20056;-57
2021/12/22 05:35:00;;;;;;;16.83;9.70;;;;;;;17.05;41.81;102647.50;5003902;28;20076;-56
2021/12/22 05:37:27;;;;;;;17.30;10.48;;;;;;;17.00;41.60;102649.63;5006734;28;20054;-57
2021/12/22 05:39:56;;;;;;;16.95;9.52;;;;;;;16.94;41.30;102644.69;5007728;28;20068;-57
2021/12/22 05:42:24;;;;;;;18.70;10.38;;;;;;;16.90;41.55;102651.22;5005821;28;20151;-58
2021/12/22 05:44:50;;;;;;;21.23;10.85;;;;;;;16.85;41.39;102656.03;5006893;28;20057;-57
2021/12/22 05:47:17;;;;;;;20.67;10.98;;;;;;;16.81;41.99;102665.22;5006711;28;20134;-57
2021/12/22 05:49:44;;;;;;;22.20;10.80;;;;;;;16.75;41.24;102667.31;5006428;28;20460;-56
2021/12/22 05:52:11;;;;;;;19.90;11.55;;;;;;;16.71;41.44;102660.41;5005460;28;20049;-57
2021/12/22 05:54:38;;;;;;;21.52;12.10;;;;;;;16.68;41.80;102659.75;5009010;28;20057;-57
2021/12/22 05:57:05;;;;;;;22.73;13.02;;;;;;;16.64;42.33;102658.22;5002940;28;20157;-56
2021/12/22 05:59:31;;;;;;;24.70;13.27;;;;;;;16.61;41.32;102661.13;5007401;28;20038;-57
2021/12/22 06:01:58;;;;;;;23.95;13.05;;;;;;;16.56;42.01;102661.41;5005735;28;20056;-57
2021/12/22 06:04:25;;;;;;;25.33;13.93;;;;;;;16.53;42.23;102672.34;5006959;28;20571;-56
2021/12/22 06:06:51;;;;;;;23.27;13.35;;;;;;;16.49;42.77;102665.47;5006245;28;20124;-57
2021/12/22 06:09:18;;;;;;;23.95;12.80;;;;;;;16.45;42.60;102671.97;5008234;28;20703;-56
2021/12/22 06:11:44;;;;;;;23.55;14.25;;;;;;;16.43;41.96;102668.53;5004814;28;20062;-57
2021/12/22 06:14:11;;;;;;;24.70;13.45;;;;;;;16.38;41.87;102657.25;5004689;28;20050;-57
2021/12/22 06:16:37;;;;;;;24.40;14.70;;;;;;;16.34;42.25;102661.09;5003567;28;20438;-57
2021/12/22 06:19:08;;;;;;;25.27;15.07;;;;;;;16.29;42.90;102661.38;5007778;28;20042;-55
2021/12/22 06:21:35;;;;;;;28.70;15.60;;;;;;;16.27;41.82;102657.94;5005223;28;20433;-55
2021/12/22 06:24:02;;;;;;;28.02;14.88;;;;;;;16.23;42.92;102656.41;5006801;28;20046;-55
2021/12/22 06:26:29;;;;;;;26.20;15.25;;;;;;;16.19;42.07;102662.91;5005870;28;20072;-55
2021/12/22 06:28:56;;;;;;;28.23;15.60;;;;;;;16.16;42.21;102660.44;5007646;28;20039;-55
2021/12/22 06:31:23;;;;;;;28.17;16.10;;;;;;;16.12;43.18;102654.44;5007453;28;20137;-54
2021/12/22 06:33:49;;;;;;;25.23;15.32;;;;;;;16.09;42.28;102651.94;5008327;28;20046;-56
2021/12/22 06:36:17;;;;;;;26.73;16.00;;;;;;;16.06;42.70;102653.94;5008404;28;20060;-54
2021/12/22 06:38:44;;;;;;;32.88;16.73;;;;;;;16.02;42.61;102646.13;5009923;28;20428;-56
2021/12/22 06:41:10;;;;;;;26.08;15.32;;;;;;;15.99;42.57;102648.97;5007868;28;20053;-55
2021/12/22 06:43:37;;;;;;;30.63;15.90;;;;;;;15.96;43.10;102645.63;5009797;28;20140;-55
2021/12/22 06:46:03;;;;;;;27.98;15.27;;;;;;;15.94;43.02;102652.91;5007251;28;20042;-56
2021/12/22 06:48:30;;;;;;;29.80;16.33;;;;;;;15.90;42.32;102646.03;5011078;28;20050;-56
2021/12/22 06:50:56;;;;;;;25.92;15.88;;;;;;;15.89;42.54;102642.50;5010942;28;20073;-55
2021/12/22 06:53:23;;;;;;;26.38;14.93;;;;;;;15.85;42.54;102643.66;5011702;28;20345;-56
2021/12/22 06:55:49;;;;;;;28.80;15.55;;;;;;;15.84;42.99;102652.63;5008785;28;20060;-54
2021/12/22 06:58:16;;;;;;;30.52;16.67;;;;;;;15.86;43.38;102656.06;5005111;28;20061;-56
2021/12/22 07:00:43;;;;;;;25.27;14.73;;;;;;;15.89;42.77;102652.34;5008877;28;20455;-56
2021/12/22 07:03:10;;;;;;;27.08;15.25;;;;;;;15.93;42.60;102654.72;5009810;28;20081;-55
2021/12/22 07:05:36;;;;;;;26.55;14.85;;;;;;;15.97;42.82;102652.72;5008425;28;20045;-56
2021/12/22 07:08:03;;;;;;;27.92;15.60;;;;;;;16.00;43.27;102661.41;5010591;28;20105;-56
2021/12/22 07:10:29;;;;;;;27.67;15.95;;;;;;;16.03;42.57;102663.88;5007495;28;20050;-56
2021/12/22 07:12:56;;;;;;;28.33;15.88;;;;;;;16.07;42.25;102663.69;5005255;28;20046;-56
2021/12/22 07:15:22;;;;;;;28.20;15.23;;;;;;;16.11;43.12;102650.03;5010117;28;20132;-56
2021/12/22 07:17:51;;;;;;;24.80;15.10;;;;;;;16.18;42.71;102643.34;5009107;28;20054;-55
2021/12/22 07:20:18;;;;;;;24.73;14.95;;;;;;;16.25;42.12;102647.34;5008561;28;20371;-57
2021/12/22 07:22:45;;;;;;;25.77;14.32;;;;;;;16.34;42.59;102642.34;5007692;28;20052;-57
2021/12/22 07:25:13;;;;;;;28.40;15.27;;;;;;;16.43;42.65;102647.09;5012629;28;20149;-56
2021/12/22 07:27:40;;;;;;;28.42;15.52;;;;;;;16.49;41.79;102644.91;5010432;28;20045;-56
2021/12/22 07:30:07;;;;;;;27.23;15.45;;;;;;;16.57;42.28;102635.53;5007474;28;20057;-57
2021/12/22 07:32:33;;;;;;;24.60;15.00;;;;;;;16.63;42.03;102648.50;5010966;28;20045;-57
2021/12/22 07:35:15;;;;;;;24.73;14.75;;;;;;;16.69;41.85;102645.44;5009214;28;20046;-57
2021/12/22 07:37:41;;;;;;;29.35;15.48;;;;;;;16.75;42.49;102640.53;5006277;28;20145;-57
2021/12/22 07:40:13;;;;;;;23.63;14.10;;;;;;;16.78;42.47;102635.00;5009020;28;20160;-56
2021/12/22 07:42:40;;;;;;;25.38;14.75;;;;;;;16.83;41.28;102639.19;5005999;28;20054;-57
2021/12/22 07:45:08;;;;;;;25.50;14.80;;;;;;;16.84;41.42;102630.19;5006897;28;20046;-56
2021/12/22 07:47:34;;;;;;;27.80;15.05;;;;;;;16.84;41.58;102631.03;5006959;28;20067;-57
2021/12/22 07:50:01;;;;;;;31.52;15.68;;;;;;;16.84;41.09;102633.72;5007590;28;20042;-56
2021/12/22 07:52:28;;;;;;;24.75;14.75;;;;;;;16.83;41.84;102632.00;5009795;28;20049;-56
2021/12/22 07:54:54;;;;;;;25.75;14.60;;;;;;;16.80;42.17;102624.16;5006455;28;20137;-56
2021/12/22 07:57:21;;;;;;;27.27;14.35;;;;;;;16.78;41.74;102623.44;5007075;28;20054;-56
2021/12/22 07:59:47;;;;;;;23.77;14.10;;;;;;;16.75;41.76;102629.84;5008090;28;20048;-56
2021/12/22 08:02:14;;;;;;;24.10;14.65;;;;;;;16.72;41.84;102618.44;5007866;28;20054;-55
2021/12/22 08:04:43;;;;;;;25.23;14.10;;;;;;;16.68;41.48;102632.97;5006868;28;20469;-56
2021/12/22 08:07:09;;;;;;;25.60;14.73;;;;;;;16.64;41.67;102636.81;5006956;28;20188;-56
2021/12/22 08:09:36;;;;;;;24.30;13.00;;;;;;;16.60;41.72;102633.47;5006714;28;20073;-57
2021/12/22 08:12:04;;;;;;;24.83;13.90;;;;;;;16.57;41.48;102630.16;5005808;28;20053;-56
2021/12/22 08:14:32;;;;;;;24.60;14.75;;;;;;;16.52;42.07;102633.13;5011029;28;20077;-56
2021/12/22 08:16:59;;;;;;;22.60;12.63;;;;;;;16.49;41.76;102630.66;5009193;28;20046;-56
2021/12/22 08:19:26;;;;;;;25.15;13.80;;;;;;;16.45;42.11;102629.16;5009362;28;20046;-56
2021/12/22 08:21:53;;;;;;;22.52;12.68;;;;;;;16.42;42.39;102637.38;5009870;28;20050;-56
2021/12/22 08:24:20;;;;;;;21.70;13.88;;;;;;;16.38;42.38;102635.84;5008886;28;20050;-56
2021/12/22 08:26:47;;;;;;;24.00;13.27;;;;;;;16.36;41.69;102635.06;5005073;28;20052;-54
2021/12/22 08:29:13;;;;;;;22.35;12.85;;;;;;;16.32;42.24;102626.38;5006533;28;20049;-54
2021/12/22 08:31:40;;;;;;;22.30;12.57;;;;;;;16.28;42.71;102628.41;5008771;28;20065;-56
2021/12/22 08:34:08;;;;;;;21.30;12.90;;;;;;;16.25;41.75;102625.94;5007695;28;20046;-56
2021/12/22 08:39:20;;;;;;;20.05;11.85;;;;;;;16.20;42.07;102632.53;5006791;28;20426;-56
2021/12/22 08:41:50;;;;;;;19.85;12.23;;;;;;;16.16;42.33;102631.88;5006955;28;20048;-55
2021/12/22 08:44:18;;;;;;;20.92;11.65;;;;;;;16.14;42.90;102628.44;5005509;28;20528;-56
2021/12/22 08:46:49;;;;;;;21.88;12.50;;;;;;;16.12;42.82;102634.81;5008298;28;20050;-55
2021/12/22 08:49:18;;;;;;;20.48;11.45;;;;;;;16.09;42.89;102637.72;5009399;28;20050;-55
2021/12/22 08:51:45;;;;;;;19.83;11.60;;;;;;;16.06;42.86;102641.44;5007467;28;20069;-56
2021/12/22 08:54:12;;;;;;;23.00;11.27;;;;;;;16.03;42.86;102637.13;5002944;28;20042;-55
2021/12/22 08:56:41;;;;;;;23.23;11.77;;;;;;;16.02;42.40;102634.56;5006496;28;20088;-56
2021/12/22 08:59:10;;;;;;;18.30;10.82;;;;;;;15.99;42.21;102632.94;5006205;28;20045;-56
2021/12/22 09:01:36;;;;;;;20.58;11.50;;;;;;;15.97;42.69;102631.31;5008644;28;20053;-57
2021/12/22 09:04:06;;;;;;;18.98;10.63;;;;;;;15.97;42.84;102631.31;5006614;28;20046;-56
2021/12/22 09:06:32;;;;;;;23.88;12.23;;;;;;;15.95;42.68;102627.88;5004933;28;20060;-56
2021/12/22 09:08:59;;;;;;;20.25;11.52;;;;;;;15.93;42.95;102625.31;5004472;28;20052;-56
2021/12/22 09:11:26;;;;;;;20.05;11.02;;;;;;;15.93;42.21;102636.00;5006371;28;20054;-56
2021/12/22 09:13:53;;;;;;;17.98;10.45;;;;;;;15.96;42.75;102633.16;5005917;28;20043;-56
2021/12/22 09:16:19;;;;;;;19.25;11.15;;;;;;;15.99;42.07;102630.25;5007173;28;20424;-57
2021/12/22 09:18:46;;;;;;;18.23;10.35;;;;;;;16.07;42.07;102643.16;5006316;28;20311;-56
2021/12/22 09:21:13;;;;;;;17.27;10.38;;;;;;;16.13;42.11;102637.41;5005660;28;20285;-57
2021/12/22 09:23:40;;;;;;;16.85;10.27;;;;;;;16.19;42.24;102631.66;5005649;28;20145;-56
2021/12/22 09:26:07;;;;;;;17.65;10.35;;;;;;;16.25;42.05;102627.75;5005204;28;20112;-57
2021/12/22 09:28:35;;;;;;;17.38;10.32;;;;;;;16.30;41.79;102628.31;5007096;28;20045;-57
2021/12/22 09:31:04;;;;;;;17.23;9.38;;;;;;;16.35;41.52;102620.84;5008160;28;20050;-57
2021/12/22 09:33:32;;;;;;;18.30;10.07;;;;;;;16.40;41.45;102628.56;5006579;28;20064;-57
2021/12/22 09:35:59;;;;;;;19.85;10.45;;;;;;;16.42;41.61;102624.84;5004087;28;20056;-56
2021/12/22 09:38:26;;;;;;;14.50;9.27;;;;;;;16.45;41.52;102631.81;5007634;28;20156;-57
2021/12/22 09:40:57;;;;;;;18.25;10.27;;;;;;;16.47;42.05;102633.44;5006328;28;20050;-57
2021/12/22 09:43:24;;;;;;;17.10;10.13;;;;;;;16.49;41.74;102633.34;5005484;28;20077;-57
2021/12/22 09:45:57;;;;;;;17.30;9.30;;;;;;;16.51;41.82;102631.41;5004084;28;20045;-57
2021/12/22 09:53:40;;;;;;;16.48;9.15;;;;;;;16.56;42.05;102629.28;5004854;28;20137;-57
2021/12/22 09:56:07;;;;;;;15.70;9.48;;;;;;;16.57;41.55;102630.16;5006285;28;20137;-57
2021/12/22 09:58:36;;;;;;;14.65;9.13;;;;;;;16.57;40.98;102636.38;5005642;28;20037;-57
2021/12/22 10:01:03;;;;;;;17.20;9.27;;;;;;;16.59;41.34;102630.91;5004718;28;20137;-57
2021/12/22 10:03:31;;;;;;;15.88;8.65;;;;;;;16.57;41.21;102631.03;5008774;28;20409;-57
2021/12/22 10:05:58;;;;;;;14.00;8.95;;;;;;;16.56;42.05;102623.06;5003921;28;20149;-57
2021/12/22 10:08:26;;;;;;;13.95;8.63;;;;;;;16.55;41.96;102624.91;5004246;28;20402;-57
2021/12/22 10:10:59;;;;;;;17.73;10.02;;;;;;;16.55;42.06;102622.22;5010160;28;20468;-57
2021/12/22 10:13:27;;;;;;;14.02;8.57;;;;;;;16.58;42.02;102622.03;5010309;28;20145;-57
2021/12/22 10:15:56;;;;;;;15.57;8.63;;;;;;;16.62;41.88;102631.56;5005872;28;20136;-57
2021/12/22 10:18:26;;;;;;;15.45;8.50;;;;;;;16.66;42.03;102634.91;5009679;28;20128;-57
2021/12/22 10:21:08;;;;;;;13.43;7.85;;;;;;;16.69;41.33;102632.91;5008005;28;20113;-58
2021/12/22 10:23:35;;;;;;;14.13;8.70;;;;;;;16.74;41.22;102624.59;5008767;28;20054;-57
2021/12/22 10:26:05;;;;;;;13.95;8.30;;;;;;;16.78;41.47;102618.91;5010178;28;20077;-57
2021/12/22 10:28:52;;;;;;;15.20;8.88;;;;;;;16.82;40.52;102611.53;5007798;28;20108;-58
2021/12/22 10:31:40;;;;;;;14.48;8.75;;;;;;;16.87;41.11;102612.09;5006296;28;20388;-57
2021/12/22 10:34:16;;;;;;;13.73;7.65;;;;;;;16.91;40.92;102610.06;5009487;28;20050;-57
2021/12/22 10:36:54;;;;;;;13.23;8.13;;;;;;;16.93;41.09;102606.34;5008614;28;20073;-57
2021/12/22 10:39:30;;;;;;;13.07;7.93;;;;;;;16.96;40.61;102606.09;5009204;28;20493;-57
2021/12/22 10:42:08;;;;;;;12.68;8.43;;;;;;;16.97;40.44;102609.66;5005732;28;20460;-57
2021/12/22 10:44:38;;;;;;;16.02;7.43;;;;;;;16.98;40.57;102604.19;5008897;28;20050;-57
2021/12/22 10:47:32;;;;;;;15.07;8.40;;;;;;;16.99;40.28;102602.38;5010454;28;20046;-57
2021/12/22 10:50:01;;;;;;;16.02;8.57;;;;;;;17.00;40.50;102601.41;5006239;28;20053;-56
2021/12/22 10:52:30;;;;;;;14.20;7.60;;;;;;;17.00;40.88;102598.72;5008779;28;20136;-57
2021/12/22 10:55:11;;;;;;;13.07;7.50;;;;;;;17.00;40.67;102590.69;5010162;28;20046;-56
2021/12/22 10:57:42;;;;;;;15.30;8.00;;;;;;;16.99;41.12;102586.31;5008909;28;20046;-56
2021/12/22 11:00:19;;;;;;;12.13;7.32;;;;;;;16.97;40.79;102573.03;5006874;28;20121;-56
2021/12/22 11:03:05;;;;;;;12.10;6.80;;;;;;;16.98;40.77;102584.59;5006130;28;20140;-57
2021/12/22 11:05:46;;;;;;;14.68;8.13;;;;;;;16.98;41.34;102590.81;5005192;28;20061;-56
2021/12/22 11:08:24;;;;;;;12.07;7.60;;;;;;;16.98;40.46;102577.41;5008836;28;20058;-56
2021/12/22 11:10:52;;;;;;;11.55;6.85;;;;;;;16.98;41.25;102584.59;5009377;28;20049;-56
2021/12/22 11:13:24;;;;;;;11.30;7.53;;;;;;;16.96;40.93;102576.63;5008759;28;20161;-57
2021/12/22 11:15:53;;;;;;;12.82;7.47;;;;;;;16.93;40.64;102568.84;5006710;28;20076;-56
2021/12/22 11:18:34;;;;;;;11.43;6.72;;;;;;;16.92;41.11;102568.91;5006048;28;20349;-56
2021/12/22 11:21:12;;;;;;;10.73;6.72;;;;;;;16.92;40.95;102563.56;5007555;28;20386;-56
2021/12/22 11:23:40;;;;;;;15.43;7.28;;;;;;;16.91;40.80;102561.84;5012206;28;20156;-56
2021/12/22 11:26:08;;;;;;;11.07;6.78;;;;;;;16.90;41.56;102563.69;5006178;28;20085;-56
2021/12/22 11:28:35;;;;;;;15.15;7.80;;;;;;;16.88;41.04;102554.03;5007790;28;20049;-57
2021/12/22 11:31:07;;;;;;;12.02;7.20;;;;;;;16.87;40.63;102553.16;5008577;28;20395;-54
2021/12/22 11:33:34;;;;;;;10.55;7.03;;;;;;;16.87;40.80;102552.31;5008123;28;20097;-55
2021/12/22 11:36:03;;;;;;;13.35;7.10;;;;;;;16.85;41.53;102546.22;5007944;28;20529;-56
2021/12/22 11:38:32;;;;;;;11.60;7.28;;;;;;;16.84;40.87;102549.84;5006377;28;20088;-56
2021/12/22 11:41:10;;;;;;;12.88;7.70;;;;;;;16.83;40.86;102532.06;5006547;28;20140;-56
2021/12/22 11:43:39;;;;;;;11.85;6.65;;;;;;;16.81;40.81;102525.97;5006807;28;20139;-56